createdAt,value
2023-02-24T00:01:25.156Z,98076.63022737238
2023-02-24T00:04:18.260Z,98072.24350758051
2023-02-24T00:07:17.684Z,98071.62703706798
2023-02-24T00:11:18.325Z,98072.15783348442
2023-02-24T00:14:16.617Z,98071.32055719805
2023-02-24T00:17:16.815Z,98065.4584962967
2023-02-24T00:21:16.562Z,98063.81656647101
2023-02-24T00:24:17.903Z,98063.63727673615
2023-02-24T00:27:16.571Z,98059.94036385645
2023-02-24T00:31:18.610Z,98054.76185752936
2023-02-24T00:34:16.937Z,98059.65573891267
2023-02-24T00:37:16.932Z,98054.09720611025
2023-02-24T00:41:18.486Z,98053.44368557542
2023-02-24T00:44:16.798Z,98060.8197791951
2023-02-24T00:47:16.601Z,98064.20133581122
2023-02-24T00:51:21.512Z,98063.28300927908
2023-02-24T00:54:16.579Z,98066.30711304105
2023-02-24T00:57:18.037Z,98066.9427668363
2023-02-24T01:01:19.839Z,98061.65013747705
2023-02-24T01:04:18.094Z,98061.85857514088
2023-02-24T01:07:17.134Z,98060.69763650905
2023-02-24T01:21:17.229Z,98040.97880594862
2023-02-24T01:24:16.472Z,98042.1828737324
2023-02-24T01:27:18.707Z,98041.7872322867
2023-02-24T01:31:19.816Z,98028.69865313277
2023-02-24T01:34:18.153Z,98026.23860101879
2023-02-24T01:37:16.867Z,98021.71782527333
2023-02-24T01:41:20.212Z,98018.27565474961
2023-02-24T01:45:25.360Z,98014.93026350916
2023-02-24T01:47:18.949Z,98012.85882836267
2023-02-24T01:51:16.525Z,98012.36325649254
2023-02-24T01:54:20.516Z,98004.40085267393
2023-02-24T01:57:20.074Z,98001.33192526396
2023-02-24T02:01:17.780Z,98003.93918225648
2023-02-24T02:04:25.610Z,98003.8477001947
2023-02-24T02:07:20.721Z,98007.2665208798
2023-02-24T02:11:23.170Z,97999.68025070053
2023-02-24T02:14:18.617Z,97988.94443641925
2023-02-24T02:17:22.895Z,97988.53791272842
2023-02-24T02:21:44.421Z,97988.8325474819
2023-02-24T02:24:32.376Z,97987.29216171858
2023-02-24T02:27:48.037Z,97989.70481516875
2023-02-24T02:31:47.817Z,97987.86034076754
2023-02-24T02:34:28.417Z,97982.88336465253
2023-02-24T02:37:25.743Z,97986.86953949858
2023-02-24T02:41:23.993Z,97982.08387039376
2023-02-24T02:44:23.061Z,97983.84691504044
2023-02-24T02:47:25.383Z,97989.2617410783
2023-02-24T02:51:21.177Z,97985.30324140434
2023-02-24T02:54:24.282Z,97981.00893327355
2023-02-24T02:57:20.840Z,97981.06325264464
2023-02-24T03:01:18.824Z,97978.8255402218
2023-02-24T03:04:21.390Z,97977.28188027335
2023-02-24T03:07:20.232Z,97981.7025783615
2023-02-24T03:11:19.725Z,97980.39233351954
2023-02-24T03:14:21.426Z,97976.51749167613
2023-02-24T03:17:21.922Z,97977.00429496262
2023-02-24T03:21:21.105Z,97975.21063684215
2023-02-24T03:24:16.745Z,97971.15445894016
2023-02-24T03:27:22.865Z,97969.08527003873
2023-02-24T03:31:25.162Z,97972.14475449172
2023-02-24T03:34:21.023Z,97971.56237369913
2023-02-24T03:37:17.167Z,97974.49455816639
2023-02-24T03:41:17.511Z,97977.82237044224
2023-02-24T03:44:17.131Z,97981.44984863428
2023-02-24T03:47:17.771Z,97982.4151557084
2023-02-24T03:51:19.929Z,97979.42554934385
2023-02-24T03:54:33.614Z,97981.88263224695
2023-02-24T03:57:27.725Z,97977.0431076386
2023-02-24T04:01:28.489Z,97982.7436025109
2023-02-24T04:04:20.568Z,97978.61356926718
2023-02-24T04:07:26.859Z,97975.18748557524
2023-02-24T04:11:24.800Z,97975.19380973693
2023-02-24T04:14:25.462Z,97982.21493489054
2023-02-24T04:17:23.328Z,97982.76548991668
2023-02-24T04:21:19.182Z,97982.58790427653
2023-02-24T04:24:28.045Z,97982.50646993188
2023-02-24T04:27:17.813Z,97975.95197619614
2023-02-24T04:31:21.967Z,97970.45474892732
2023-02-24T04:34:20.436Z,97975.66201219622
2023-02-24T04:37:17.453Z,97971.9477761799
2023-02-24T04:41:21.599Z,97967.18874219916
2023-02-24T04:44:20.164Z,97969.5562489503
2023-02-24T04:47:16.701Z,97971.4301693116
2023-02-24T04:51:16.739Z,97962.52819315274
2023-02-24T04:54:19.671Z,97956.08582686339
2023-02-24T04:57:17.054Z,97959.38033252297
2023-02-24T05:01:16.169Z,97956.35303490254
2023-02-24T05:04:17.439Z,97954.34473224908
2023-02-24T05:07:16.853Z,97958.26507844104
2023-02-24T05:11:17.620Z,97945.81185724438
2023-02-24T05:14:18.668Z,97949.87120158857
2023-02-24T05:17:16.975Z,97945.5710060165
2023-02-24T05:21:48.624Z,97939.17643268222
2023-02-24T05:24:17.462Z,97937.55002957056
2023-02-24T05:27:17.386Z,97944.08492739705
2023-02-24T05:31:18.347Z,97936.50022719013
2023-02-24T05:34:17.334Z,97935.78889277643
2023-02-24T05:37:16.880Z,97941.12899629447
2023-02-24T05:41:18.843Z,97942.90246378582
2023-02-24T05:44:18.702Z,97943.5701015976
2023-02-24T05:47:19.646Z,97943.9589916957
2023-02-24T05:51:17.153Z,97947.7651930886
2023-02-24T05:54:17.743Z,97948.53770583139
2023-02-24T05:57:18.932Z,97944.95086883151
2023-02-24T06:01:17.708Z,97941.25600814528
2023-02-24T06:04:21.186Z,97939.48413245281
2023-02-24T06:07:20.656Z,97936.44952985202
2023-02-24T06:11:17.974Z,97939.55110557452
2023-02-24T06:14:16.362Z,97941.10100931062
2023-02-24T06:17:17.882Z,97942.78781466215
2023-02-24T06:21:17.175Z,97936.7043576844
2023-02-24T06:24:18.395Z,97938.5395250946
2023-02-24T06:27:19.692Z,97938.23598283826
2023-02-24T06:31:15.783Z,97933.04917782976
2023-02-24T06:34:18.215Z,97933.52449516552
2023-02-24T06:37:16.112Z,97936.56224215016
2023-02-24T06:41:16.522Z,97945.52654899216
2023-02-24T06:44:17.058Z,97953.17121600559
2023-02-24T06:47:18.203Z,97960.67217988765
2023-02-24T06:51:16.103Z,97960.9162515734
2023-02-24T06:54:16.523Z,97958.7125493654
2023-02-24T06:57:16.418Z,97962.579058172
2023-02-24T07:01:17.420Z,97971.04360644237
2023-02-24T07:04:21.030Z,97971.66711498749
2023-02-24T07:07:17.680Z,97976.27337128643
2023-02-24T07:11:19.942Z,97982.67271519503
2023-02-24T07:14:17.953Z,97977.99364079845
2023-02-24T07:17:18.964Z,97978.1506796617
2023-02-24T07:21:16.904Z,97983.07170598116
2023-02-24T07:24:26.398Z,97979.35175038755
2023-02-24T07:27:22.808Z,97983.01687220695
2023-02-24T07:31:19.222Z,97974.53504746025
2023-02-24T07:34:24.667Z,97974.92804476936
2023-02-24T07:37:17.010Z,97978.83537493799
2023-02-24T07:41:21.539Z,97984.49643415974
2023-02-24T07:44:17.377Z,97984.74543671923
2023-02-24T07:47:16.408Z,97981.59940310518
2023-02-24T07:51:18.983Z,97978.4750177481
2023-02-24T07:54:16.487Z,97979.73031401794
2023-02-24T07:57:19.011Z,97977.20544373915
2023-02-24T08:01:19.514Z,97979.25189833148
2023-02-24T08:04:20.114Z,97982.11889446259
2023-02-24T08:07:17.041Z,97981.62425435068
2023-02-24T08:11:15.931Z,97980.44924041527
2023-02-24T08:14:16.287Z,97980.39638377141
2023-02-24T08:17:21.409Z,97989.73716972809
2023-02-24T08:21:17.226Z,97985.02703095137
2023-02-24T08:24:20.416Z,97985.39505353522
2023-02-24T08:27:22.079Z,97994.06910723983
2023-02-24T08:31:18.796Z,97995.46952612232
2023-02-24T08:34:16.495Z,97983.05394427852
2023-02-24T08:37:16.568Z,97989.74265186027
2023-02-24T08:41:20.366Z,97988.70401886714
2023-02-24T08:44:18.940Z,97988.67294138335
2023-02-24T08:47:21.172Z,97987.34324958855
2023-02-24T08:51:20.446Z,97988.08018532698
2023-02-24T08:54:19.857Z,97986.00914887717
2023-02-24T08:57:18.367Z,97985.58568715736
2023-02-24T09:01:22.665Z,97984.36358435743
2023-02-24T09:04:19.803Z,97978.40936494015
2023-02-24T09:07:20.228Z,97984.28577943039
2023-02-24T09:11:16.718Z,97984.3168047218
2023-02-24T09:14:26.505Z,97988.06121489166
2023-02-24T09:17:23.178Z,97984.764745936
2023-02-24T09:21:44.448Z,97990.22822491832
2023-02-24T09:24:27.155Z,97986.23182090344
2023-02-24T09:27:17.747Z,97981.95168525324
2023-02-24T09:31:17.290Z,97984.34717426276
2023-02-24T09:34:18.830Z,97984.79563216493
2023-02-24T09:37:25.334Z,97986.7064984998
2023-02-24T09:41:34.325Z,97980.29981951509
2023-02-24T09:44:26.121Z,97983.67051480895
2023-02-24T09:47:25.004Z,97979.46265520375
2023-02-24T09:51:22.695Z,97981.32560350878
2023-02-24T09:54:19.936Z,97978.91245564866
2023-02-24T09:57:23.322Z,97980.72461557675
2023-02-24T10:01:32.315Z,97979.99522095372
2023-02-24T10:05:07.821Z,97976.600929216
2023-02-24T10:07:19.280Z,97970.46980354628
2023-02-24T10:11:17.223Z,97959.85738113013
2023-02-24T10:14:37.910Z,97962.97632645754
2023-02-24T10:17:27.424Z,97960.18998686346
2023-02-24T10:21:23.555Z,97952.78826083614
2023-02-24T10:24:25.402Z,97947.04182166055
2023-02-24T10:27:21.786Z,97945.4563898514
2023-02-24T10:31:31.475Z,97942.064274486
2023-02-24T10:34:21.528Z,97936.38814958921
2023-02-24T10:37:27.999Z,97938.33918838232
2023-02-24T10:41:16.656Z,97930.73662999982
2023-02-24T10:44:21.210Z,97929.27883055774
2023-02-24T10:47:19.515Z,97922.77383660298
2023-02-24T10:51:23.223Z,97918.85844396822
2023-02-24T10:54:35.914Z,97923.88913104683
2023-02-24T10:57:21.572Z,97923.7744396593
2023-02-24T11:01:25.611Z,97919.48311213372
2023-02-24T11:04:36.879Z,97906.41721885288
2023-02-24T11:07:25.186Z,97906.25810919712
2023-02-24T11:11:33.205Z,97899.67708018249
2023-02-24T11:21:17.083Z,97867.9894327583
2023-02-24T11:24:18.560Z,97853.99282267032
2023-02-24T11:27:21.759Z,97847.6722783131
2023-02-24T11:31:30.243Z,97843.48216714279
2023-02-24T11:34:21.301Z,97837.72863214431
2023-02-24T11:37:32.184Z,97827.19419639224
2023-02-24T11:41:22.574Z,97815.58152360296
2023-02-24T11:44:22.821Z,97808.46838257089
2023-02-24T11:47:23.212Z,97807.27084732175
2023-02-24T11:51:21.568Z,97805.8796729173
2023-02-24T11:54:17.889Z,97803.82891887266
2023-02-24T11:57:22.961Z,97792.67139535236
2023-02-24T12:01:22.404Z,97789.67857409669
2023-02-24T12:04:22.053Z,97789.95592072769
2023-02-24T12:07:23.996Z,97783.13248779727
2023-02-24T12:11:23.769Z,97779.71490146917
2023-02-24T12:14:25.538Z,97779.16602604053
2023-02-24T12:17:25.338Z,97771.29464871062
2023-02-24T12:31:32.587Z,97751.63418915895
2023-02-24T12:34:29.700Z,97743.15568019988
2023-02-24T12:37:33.334Z,97733.48658482109
2023-02-24T12:41:31.117Z,97726.35357847136
2023-02-24T12:44:29.096Z,97726.24899201583
2023-02-24T12:47:24.607Z,97718.25210934083
2023-02-24T12:51:24.885Z,97715.85125610462
2023-02-24T12:54:22.624Z,97710.02258805104
2023-02-24T12:57:27.811Z,97709.84919593105
2023-02-24T13:01:26.798Z,97704.71977856914
2023-02-24T13:04:28.910Z,97706.56978075011
2023-02-24T13:07:35.075Z,97702.34015907109
2023-02-24T13:11:26.600Z,97705.6065319042
2023-02-24T13:14:26.410Z,97700.62050726547
2023-02-24T13:17:21.235Z,97693.83550828896
2023-02-24T13:21:21.189Z,97689.7498103563
2023-02-24T13:24:20.460Z,97690.90710663893
2023-02-24T13:27:23.025Z,97687.18925040172
2023-02-24T13:31:17.051Z,97685.86463676092
2023-02-24T13:34:42.467Z,97679.92398051445
2023-02-24T13:37:27.141Z,97680.86806870332
2023-02-24T13:41:32.811Z,97674.84091853169
2023-02-24T13:44:25.205Z,97669.93412002904
2023-02-24T13:47:38.864Z,97660.71137766873
2023-02-24T13:51:52.537Z,97654.95665261295
2023-02-24T13:54:30.455Z,97646.59352061833
2023-02-24T13:57:36.871Z,97640.2147014697
2023-02-24T14:01:19.215Z,97639.75164285723
2023-02-24T14:04:20.749Z,97625.9130800303
2023-02-24T14:07:22.474Z,97624.35571849179
2023-02-24T14:11:17.734Z,97623.3843311204
2023-02-24T14:14:18.819Z,97621.7257854737
2023-02-24T14:17:22.334Z,97618.06185441957
2023-02-24T14:21:21.184Z,97612.17245155523
2023-02-24T14:24:18.199Z,97616.33613499999
2023-02-24T14:27:25.239Z,97615.93010349473
2023-02-24T14:31:22.902Z,97613.34620095938
2023-02-24T14:34:21.144Z,97610.14522195962
2023-02-24T14:37:22.738Z,97610.22240396918
2023-02-24T14:41:21.334Z,97600.98059133407
2023-02-24T14:44:20.808Z,97597.46005822983
2023-02-24T14:47:19.252Z,97586.45018894805
2023-02-24T14:51:22.591Z,97580.18070483745
2023-02-24T14:54:22.521Z,97583.15550065979
2023-02-24T14:57:22.296Z,97581.11768114076
2023-02-24T15:01:21.728Z,97576.37635784026
2023-02-24T15:04:30.066Z,97575.19344871494
2023-02-24T15:07:20.794Z,97577.2311566714
2023-02-24T15:11:21.666Z,97576.18728617532
2023-02-24T15:14:22.334Z,97571.03191746444
2023-02-24T15:17:20.084Z,97571.05372202578
2023-02-24T15:21:21.928Z,97566.64661151546
2023-02-24T15:24:19.728Z,97561.11088439282
2023-02-24T15:27:24.656Z,97564.22797659462
2023-02-24T15:31:18.945Z,97556.14713037769
2023-02-24T15:34:20.290Z,97552.91430027844
2023-02-24T15:37:24.134Z,97553.40529994077
2023-02-24T15:41:16.440Z,97548.30403468224
2023-02-24T15:44:34.962Z,97541.17085136662
2023-02-24T15:47:21.961Z,97542.9381455009
2023-02-24T15:51:27.876Z,97542.22724300138
2023-02-24T15:54:19.799Z,97538.93877424818
2023-02-24T15:57:18.576Z,97531.33322143421
2023-02-24T16:01:16.582Z,97529.35872758298
2023-02-24T16:04:16.998Z,97524.41885097907
2023-02-24T16:07:21.368Z,97529.20694572352
2023-02-24T16:11:21.011Z,97531.66074016845
2023-02-24T16:14:17.834Z,97525.21976177883
2023-02-24T16:17:27.471Z,97521.57674885874
2023-02-24T16:21:17.121Z,97518.49910902644
2023-02-24T16:24:17.308Z,97525.40673642709
2023-02-24T16:27:19.538Z,97531.82233574783
2023-02-24T16:31:17.888Z,97534.84674365945
2023-02-24T16:34:17.488Z,97541.0815074165
2023-02-24T16:37:20.072Z,97542.3802360054
2023-02-24T16:41:16.943Z,97548.83184781545
2023-02-24T16:44:17.031Z,97554.06131161422
2023-02-24T16:47:19.902Z,97548.90532331544
2023-02-24T16:51:16.662Z,97538.61555974229
2023-02-24T16:54:16.786Z,97537.18720005144
2023-02-24T16:57:17.162Z,97555.9730864378
2023-02-24T17:01:20.198Z,97562.11815196213
2023-02-24T17:04:16.841Z,97565.191271718
2023-02-24T17:07:18.005Z,97569.21238067093
2023-02-24T17:11:19.764Z,97574.57358631206
2023-02-24T17:14:19.475Z,97568.88429374412
2023-02-24T17:17:17.409Z,97573.59189289602
2023-02-24T17:21:16.312Z,97580.63424709252
2023-02-24T17:24:19.145Z,97575.37457287028
2023-02-24T17:27:16.590Z,97589.63680533011
2023-02-24T17:31:16.640Z,97591.34219007083
2023-02-24T17:34:17.074Z,97596.84193589322
2023-02-24T17:37:17.037Z,97598.89428834639
2023-02-24T17:41:16.819Z,97595.60655709513
2023-02-24T17:44:16.926Z,97592.06610606184
2023-02-24T17:47:16.952Z,97586.522891348
2023-02-24T17:51:19.253Z,97584.17026400502
2023-02-24T17:54:17.863Z,97588.72499748638
2023-02-24T17:57:17.754Z,97584.98325811171
2023-02-24T18:01:16.991Z,97570.73127117909
2023-02-24T18:04:17.566Z,97570.98211810633
2023-02-24T18:07:20.968Z,97565.21377642767
2023-02-24T18:11:20.336Z,97568.92814661401
2023-02-24T18:14:22.898Z,97573.15108333762
2023-02-24T18:17:22.084Z,97575.87536805561
2023-02-24T18:21:18.173Z,97575.16975941698
2023-02-24T18:24:20.486Z,97571.04227057533
2023-02-24T18:27:17.930Z,97573.92818508371
2023-02-24T18:31:20.471Z,97582.01998012808
2023-02-24T18:34:18.543Z,97580.87670269897
2023-02-24T18:37:18.580Z,97577.51348100352
2023-02-24T18:41:22.418Z,97573.80479939788
2023-02-24T18:44:18.637Z,97566.20293878355
2023-02-24T18:47:17.664Z,97568.89861221529
2023-02-24T18:51:21.325Z,97570.85607037474
2023-02-24T18:54:17.352Z,97573.43203573518
2023-02-24T18:57:17.294Z,97580.45033098699
2023-02-24T19:01:19.000Z,97572.4663567332
2023-02-24T19:04:18.390Z,97573.33450376066
2023-02-24T19:07:17.381Z,97568.31140138315
2023-02-24T19:11:19.319Z,97571.23565641641
2023-02-24T19:14:17.586Z,97575.91622875183
2023-02-24T19:17:19.446Z,97568.98355054023
2023-02-24T19:21:17.659Z,97553.79298521088
2023-02-24T19:24:17.664Z,97550.33739133671
2023-02-24T19:27:17.716Z,97553.07574168142
2023-02-24T19:31:18.677Z,97556.73710783556
2023-02-24T19:34:16.589Z,97563.88270126011
2023-02-24T19:37:16.882Z,97563.98466785422
2023-02-24T19:41:17.158Z,97562.03983900175
2023-02-24T19:44:17.290Z,97551.74357503494
2023-02-24T19:47:17.846Z,97551.9540748606
2023-02-24T19:51:19.166Z,97553.08818704018
2023-02-24T19:54:17.571Z,97545.0546418707
2023-02-24T19:57:17.395Z,97548.73627332092
2023-02-24T20:01:16.759Z,97541.60750736413
2023-02-24T20:04:17.778Z,97524.30314558181
2023-02-24T20:07:17.804Z,97518.11800341857
2023-02-24T20:11:16.244Z,97510.85803692743
2023-02-24T20:14:18.623Z,97497.74290601417
2023-02-24T20:17:18.325Z,97491.2048161542
2023-02-24T20:21:16.399Z,97481.01241876409
2023-02-24T20:24:17.928Z,97487.8341028991
2023-02-24T20:27:17.374Z,97481.22004686424
2023-02-24T20:31:19.034Z,97472.8303249911
2023-02-24T20:34:17.733Z,97458.95392753369
2023-02-24T20:37:17.687Z,97455.07316482475
2023-02-24T20:41:18.540Z,97457.46273833328
2023-02-24T20:44:17.255Z,97449.1373352415
2023-02-24T20:47:19.156Z,97454.79374087263
2023-02-24T20:51:16.916Z,97449.98424257374
2023-02-24T20:54:17.491Z,97452.88894405567
2023-02-24T20:57:16.862Z,97453.15707234194
2023-02-24T21:01:18.949Z,97443.30300654304
2023-02-24T21:04:20.378Z,97432.27312042094
2023-02-24T21:07:18.299Z,97424.36602813506
2023-02-24T21:11:17.167Z,97412.26163811632
2023-02-24T21:14:17.578Z,97404.2299575561
2023-02-24T21:17:17.527Z,97401.17400987637
2023-02-24T21:21:17.407Z,97393.09945047424
2023-02-24T21:24:17.101Z,97390.27712937734
2023-02-24T21:27:17.032Z,97386.88542382968
2023-02-24T21:31:18.303Z,97370.14950223845
2023-02-24T21:34:17.681Z,97366.99225264086
2023-02-24T21:37:19.013Z,97356.99886337532
2023-02-24T21:41:20.809Z,97367.51091562893
2023-02-24T21:44:17.579Z,97389.07861897028
2023-02-24T21:47:17.788Z,97420.63476714968
2023-02-24T21:51:17.265Z,97479.66771455249
2023-02-24T21:54:18.235Z,97502.67826804915
2023-02-24T21:57:17.815Z,97495.98687554902
2023-02-24T22:01:20.174Z,97469.98962859611
2023-02-24T22:04:18.001Z,97445.00311837136
2023-02-24T22:07:17.044Z,97396.50681086867
2023-02-24T22:11:17.990Z,97356.80776034915
2023-02-24T22:14:17.142Z,97347.62915729385
2023-02-24T22:17:16.992Z,97349.90416803962
2023-02-24T22:21:20.461Z,97329.44060628425
2023-02-24T22:24:17.286Z,97340.96032850408
2023-02-24T22:27:18.144Z,97352.03488245385
2023-02-24T22:31:19.287Z,97327.0808616589
2023-02-24T22:34:17.320Z,97312.56539518254
2023-02-24T22:37:17.115Z,97309.04677047748
2023-02-24T22:41:19.244Z,97282.05174793352
2023-02-24T22:44:19.892Z,97274.15277217819
2023-02-24T22:47:17.906Z,97276.74026735214
2023-02-24T22:51:18.423Z,97280.45042433635
2023-02-24T22:54:16.979Z,97278.38342678366
2023-02-24T22:57:17.687Z,97273.03922091989
2023-02-24T23:01:20.863Z,97268.44790006065
2023-02-24T23:04:18.912Z,97279.02113217335
2023-02-24T23:07:16.790Z,97285.251358919
2023-02-24T23:11:19.060Z,97276.05187252235
2023-02-24T23:14:17.340Z,97279.38122092611
2023-02-24T23:17:17.023Z,97274.70697161669
2023-02-24T23:21:18.978Z,97273.31319799426
2023-02-24T23:24:18.439Z,97276.7920912099
2023-02-24T23:27:17.048Z,97276.92327079532
2023-02-24T23:31:18.613Z,97272.25146066131
2023-02-24T23:34:17.620Z,97260.28988388197
2023-02-24T23:37:17.468Z,97264.12808825925
2023-02-24T23:41:17.162Z,97266.13254139535
2023-02-24T23:44:17.384Z,97264.31633049432
2023-02-24T23:47:17.566Z,97263.91926469756
2023-02-24T23:51:18.427Z,97272.63542902184
2023-02-24T23:54:18.614Z,97278.0672761882
2023-02-24T23:57:18.806Z,97277.56668038778
